Main page
METAR-TAF:

METAR-TAF

Airports :

Kingston/Norman Rogers Airport

Kingston, Ontario, Canada

latitude: 44-13N, longitude: 076-36W, elevation: 305 ft

Current weather observation

The report was made 57 minutes ago, at 02:00 UTC
Calm wind
Temperature 34°F
Humidity 93%
Pressure 29.94 in. Hg
Visibility: 15 miles
Overcast at a height of 13000 ft

METAR: CYGK 250200Z 00000KT 15SM OVC130 01/M00 A2994 RMK AC8 SLP143

Time: 21:57 (02:57 UTC)

Forecast

The report was made 1 hour and 19 minutes ago, at 01:38 UTC
Forecast valid from 25 at 02 UTC to 25 at 04 UTC
Wind 3 mph from variable directions
Visibility: 6 miles
Overcast at a height of 16000 ft

TAF: CYGK 250138Z 2502/2504 VRB03KT P6SM OVC160 RMK NXT FCST WILL BE ISSUED AT 251245Z

Weather observations and forecasts of more than 4000 airports (METAR and TAF reports).

The available stations are represented by yellow and red dots on the map.

Hover mouse over dot to see the name of the station.

Then click to see weather observations and forecasts.

To change the map : click on the green buttons with a black cross to zoom in, on the green button with a dash to zoom out, or on the green arrows for adjacent maps.


METAR-TAF: